Time;durP1;ratioP1;P1;durP2;ratioP2;P2;SDS_P1;SDS_P2;PMS_P1;PMS_P2;Temp;Humidity;BMP_temperature;BMP_pressure;BME280_temperature;BME280_humidity;BME280_pressure;Samples;Min_cycle;Max_cycle;Signal;HPM_P1;HPM_P2
2023/01/23 00:01:16;;;;;;;9.38;5.55;;;;;;;9.43;62.78;95336.16;5062948;28;20025;-77
2023/01/23 00:03:42;;;;;;;7.80;5.32;;;;;;;9.38;62.71;95331.91;5063013;28;20043;-77
2023/01/23 00:06:11;;;;;;;7.80;5.28;;;;;;;9.31;62.89;95330.06;5061165;28;20021;-78
2023/01/23 00:08:37;;;;;;;12.60;6.10;;;;;;;9.26;63.15;95338.78;5063297;28;20032;-78
2023/01/23 00:11:11;;;;;;;8.27;5.30;;;;;;;9.30;63.24;95361.44;5061939;28;20110;-77
2023/01/23 00:13:37;;;;;;;7.90;5.15;;;;;;;9.31;62.96;95363.00;5064049;28;20122;-77
2023/01/23 00:16:07;;;;;;;10.00;5.30;;;;;;;9.34;62.78;95361.38;5063233;28;20427;-78
2023/01/23 00:18:33;;;;;;;6.93;5.35;;;;;;;9.34;62.85;95357.84;5060861;28;20039;-78
2023/01/23 00:21:03;;;;;;;7.25;5.60;;;;;;;9.38;62.40;95355.81;5063694;28;20029;-77
2023/01/23 00:23:28;;;;;;;7.25;5.25;;;;;;;9.40;62.15;95351.47;5060267;28;20033;-77
2023/01/23 00:25:53;;;;;;;6.10;5.18;;;;;;;9.47;62.18;95358.81;5068814;28;20032;-77
2023/01/23 00:28:19;;;;;;;10.10;5.15;;;;;;;9.40;61.92;95347.94;5062214;28;20035;-78
2023/01/23 00:30:44;;;;;;;7.07;5.22;;;;;;;9.42;62.08;95349.09;5064326;28;20491;-77
2023/01/23 00:33:10;;;;;;;8.48;5.43;;;;;;;9.43;61.93;95347.13;5062346;28;20032;-78
2023/01/23 00:35:35;;;;;;;6.43;5.03;;;;;;;9.38;62.12;95358.56;5061800;28;20037;-78
2023/01/23 00:38:00;;;;;;;6.72;5.13;;;;;;;9.35;62.30;95367.63;5064110;28;20021;-78
2023/01/23 00:40:26;;;;;;;5.38;4.38;;;;;;;9.30;62.30;95364.19;5050749;28;20093;-78
2023/01/23 00:42:52;;;;;;;7.07;5.55;;;;;;;9.39;62.28;95371.88;5063317;28;20064;-77
2023/01/23 00:45:18;;;;;;;8.20;5.25;;;;;;;9.33;62.28;95365.31;5061052;28;20032;-77
2023/01/23 00:47:43;;;;;;;10.95;5.55;;;;;;;9.35;62.01;95371.16;5068069;28;20422;-78
2023/01/23 00:50:09;;;;;;;7.95;5.55;;;;;;;9.36;62.13;95372.72;5066419;28;20024;-77
2023/01/23 00:52:35;;;;;;;8.57;5.57;;;;;;;9.40;62.12;95372.63;5073744;28;20499;-76
2023/01/23 00:55:01;;;;;;;8.63;5.82;;;;;;;9.40;62.27;95372.63;5067733;28;20111;-77
2023/01/23 00:57:26;;;;;;;7.43;5.70;;;;;;;9.42;62.36;95368.31;5066679;28;20047;-78
2023/01/23 00:59:51;;;;;;;7.72;5.70;;;;;;;9.51;62.21;95376.75;5067806;28;20037;-77
2023/01/23 01:02:17;;;;;;;7.82;5.75;;;;;;;9.54;61.99;95373.19;5065648;28;20032;-77
2023/01/23 01:04:42;;;;;;;7.15;5.50;;;;;;;9.58;61.83;95367.63;5066853;28;20487;-77
2023/01/23 01:07:08;;;;;;;8.73;5.65;;;;;;;9.58;61.54;95364.88;5064364;28;20040;-76
2023/01/23 01:09:33;;;;;;;8.02;5.97;;;;;;;9.60;61.72;95358.97;5066462;28;20040;-78
2023/01/23 01:11:59;;;;;;;8.93;5.72;;;;;;;9.61;61.64;95349.53;5065904;28;20025;-78
2023/01/23 01:14:24;;;;;;;8.10;5.22;;;;;;;9.62;61.36;95356.56;5067640;28;20024;-77
2023/01/23 01:16:49;;;;;;;6.43;4.97;;;;;;;9.54;61.62;95362.19;5066998;28;20037;-78
2023/01/23 01:19:16;;;;;;;7.03;5.30;;;;;;;9.62;61.68;95371.06;5066287;28;20033;-76
2023/01/23 01:21:42;;;;;;;8.15;5.78;;;;;;;9.51;61.63;95378.72;5049414;28;20167;-77
2023/01/23 01:24:08;;;;;;;8.63;5.70;;;;;;;9.49;61.93;95378.38;5066398;28;20103;-78
2023/01/23 01:26:34;;;;;;;7.13;5.05;;;;;;;9.43;61.84;95380.06;5068319;28;20040;-77
2023/01/23 01:29:00;;;;;;;9.02;5.47;;;;;;;9.47;62.01;95391.75;5062494;28;20506;-77
2023/01/23 01:31:26;;;;;;;9.30;5.22;;;;;;;9.48;62.10;95385.06;5066279;28;20028;-78
2023/01/23 01:33:51;;;;;;;9.82;6.10;;;;;;;9.37;62.44;95387.97;5064999;28;20024;-76
2023/01/23 01:36:19;;;;;;;9.50;5.47;;;;;;;9.37;62.67;95392.69;5064597;28;20043;-78
2023/01/23 01:38:44;;;;;;;8.00;5.57;;;;;;;9.32;62.91;95391.97;5067325;28;20479;-78
2023/01/23 01:41:11;;;;;;;7.80;6.18;;;;;;;9.28;63.33;95387.72;5065389;28;20099;-77
2023/01/23 01:43:37;;;;;;;9.95;5.43;;;;;;;9.30;63.37;95382.63;5065182;28;20028;-77
2023/01/23 01:46:21;;;;;;;8.02;5.85;;;;;;;9.35;63.58;95381.34;5065103;28;20035;-78
2023/01/23 01:49:07;;;;;;;9.20;6.50;;;;;;;9.34;63.90;95386.06;5070954;28;20166;-76
2023/01/23 01:51:35;;;;;;;9.60;5.95;;;;;;;9.32;63.79;95374.75;5066631;28;20051;-79
2023/01/23 01:54:08;;;;;;;9.48;5.88;;;;;;;9.35;64.04;95375.84;5066649;28;20021;-76
2023/01/23 01:56:39;;;;;;;10.23;5.95;;;;;;;9.35;63.93;95379.41;5076667;28;20059;-77
2023/01/23 01:59:04;;;;;;;11.70;6.85;;;;;;;9.28;64.14;95374.00;5052542;28;20041;-77
2023/01/23 02:01:30;;;;;;;9.43;6.22;;;;;;;9.32;64.16;95378.25;5067352;28;20086;-76
2023/01/23 02:03:55;;;;;;;9.13;6.13;;;;;;;9.25;64.17;95386.63;5065456;28;20082;-77
2023/01/23 02:06:21;;;;;;;7.07;4.38;;;;;;;9.14;63.95;95383.25;5065036;28;20078;-77
2023/01/23 02:08:50;;;;;;;6.95;4.32;;;;;;;9.03;64.09;95377.19;5065475;28;20041;-77
2023/01/23 02:11:17;;;;;;;6.50;4.30;;;;;;;9.05;64.36;95380.25;5062981;28;20036;-77
2023/01/23 02:13:44;;;;;;;5.63;4.15;;;;;;;9.01;64.62;95372.13;5065589;28;20028;-77
2023/01/23 02:16:21;;;;;;;5.50;3.88;;;;;;;9.01;64.78;95379.56;5079191;28;20127;-77
2023/01/23 02:18:49;;;;;;;6.45;3.58;;;;;;;8.94;65.24;95379.66;5065300;28;20028;-78
2023/01/23 02:21:19;;;;;;;6.80;4.57;;;;;;;8.89;65.54;95388.34;5064318;28;20040;-77
2023/01/23 02:24:21;;;;;;;7.20;4.13;;;;;;;8.84;65.83;95386.09;5064635;28;20552;-77
2023/01/23 02:26:47;;;;;;;4.78;3.00;;;;;;;8.82;65.55;95394.72;5066110;28;20040;-79
2023/01/23 02:29:13;;;;;;;7.88;4.40;;;;;;;8.65;66.01;95365.59;5062971;28;20387;-76
2023/01/23 02:31:41;;;;;;;5.97;3.50;;;;;;;8.78;65.98;95396.75;5065885;28;20110;-77
2023/01/23 02:34:10;;;;;;;6.32;3.35;;;;;;;8.78;65.90;95388.53;5063080;28;20112;-77
2023/01/23 02:36:35;;;;;;;6.93;4.10;;;;;;;8.86;65.89;95392.69;5064574;28;20090;-78
2023/01/23 02:39:15;;;;;;;7.25;4.53;;;;;;;8.88;66.02;95397.78;5064259;28;20034;-77
2023/01/23 02:41:46;;;;;;;6.10;4.45;;;;;;;8.78;66.51;95394.00;5063985;28;20031;-77
2023/01/23 02:44:16;;;;;;;7.97;4.22;;;;;;;8.83;66.62;95401.78;5069888;28;20043;-75
2023/01/23 02:46:42;;;;;;;6.07;4.15;;;;;;;8.85;66.35;95399.38;5064983;28;20020;-78
2023/01/23 02:49:08;;;;;;;7.35;4.75;;;;;;;8.87;66.04;95396.22;5064162;28;20032;-78
2023/01/23 02:51:33;;;;;;;8.13;4.65;;;;;;;8.80;66.39;95396.34;5063605;28;20112;-78
2023/01/23 02:53:59;;;;;;;5.88;3.97;;;;;;;8.82;66.39;95402.16;5066396;28;20036;-78
2023/01/23 02:56:25;;;;;;;7.05;3.85;;;;;;;8.84;66.40;95392.34;5062596;28;20036;-76
2023/01/23 03:01:34;;;;;;;5.22;3.75;;;;;;;8.82;66.28;95394.72;5079702;28;20069;-75
2023/01/23 03:04:02;;;;;;;5.03;3.30;;;;;;;8.84;65.89;95389.63;5081913;28;20567;-78
2023/01/23 03:06:29;;;;;;;6.20;3.35;;;;;;;8.71;65.89;95394.88;5064984;28;20036;-76
2023/01/23 03:08:55;;;;;;;4.45;3.15;;;;;;;8.63;66.42;95404.38;5061330;28;20044;-77
2023/01/23 03:11:20;;;;;;;4.60;3.30;;;;;;;8.63;66.44;95395.41;5065105;28;20201;-78
2023/01/23 03:13:46;;;;;;;5.75;3.45;;;;;;;8.60;66.83;95407.97;5063665;28;20036;-77
2023/01/23 03:16:11;;;;;;;4.90;3.13;;;;;;;8.55;66.59;95399.44;5062117;28;20194;-76
2023/01/23 03:18:37;;;;;;;6.45;4.18;;;;;;;8.58;66.90;95406.81;5065366;28;20083;-77
2023/01/23 03:21:06;;;;;;;4.78;3.53;;;;;;;8.55;66.39;95410.41;5063095;28;20117;-76
2023/01/23 03:23:32;;;;;;;5.25;3.88;;;;;;;8.58;66.49;95412.28;5064679;28;20048;-76
2023/01/23 03:25:57;;;;;;;4.82;3.53;;;;;;;8.60;66.16;95418.13;5061133;28;20062;-77
2023/01/23 03:31:13;;;;;;;4.60;3.10;;;;;;;8.56;66.20;95418.19;5054820;28;20075;-77
2023/01/23 03:33:42;;;;;;;4.85;3.00;;;;;;;8.59;66.11;95413.84;5063256;28;20056;-78
2023/01/23 03:36:08;;;;;;;4.43;2.80;;;;;;;8.59;66.02;95427.53;5064788;28;20024;-76
2023/01/23 03:38:34;;;;;;;4.22;2.42;;;;;;;8.54;65.99;95408.81;5067509;28;20039;-78
2023/01/23 03:43:43;;;;;;;3.80;2.30;;;;;;;8.49;65.98;95424.56;5064751;28;20133;-76
2023/01/23 03:46:08;;;;;;;4.30;2.80;;;;;;;8.49;66.33;95407.34;5064953;28;20526;-76
2023/01/23 03:48:34;;;;;;;4.28;2.75;;;;;;;8.56;66.25;95418.19;5065591;28;20029;-78
2023/01/23 03:50:59;;;;;;;3.28;2.17;;;;;;;8.59;65.98;95411.88;5062194;28;20394;-77
2023/01/23 03:53:25;;;;;;;4.53;2.80;;;;;;;8.61;66.02;95423.22;5065963;28;20420;-76
2023/01/23 03:55:50;;;;;;;5.70;3.13;;;;;;;8.63;65.88;95414.59;5061596;28;20032;-76
2023/01/23 03:58:16;;;;;;;4.85;3.03;;;;;;;8.53;66.24;95416.25;5063820;28;20101;-76
2023/01/23 04:00:41;;;;;;;6.15;3.17;;;;;;;8.49;66.74;95405.38;5061798;28;20119;-77
2023/01/23 04:03:07;;;;;;;5.60;3.33;;;;;;;8.56;66.21;95411.94;5065243;28;20150;-77
2023/01/23 04:05:32;;;;;;;6.32;3.53;;;;;;;8.66;65.72;95406.31;5070238;28;20415;-77
2023/01/23 04:07:58;;;;;;;5.85;3.40;;;;;;;8.62;65.94;95422.03;5079122;28;20107;-75
2023/01/23 04:10:23;;;;;;;6.00;3.40;;;;;;;8.59;66.13;95416.59;5064141;28;20498;-78
2023/01/23 04:12:48;;;;;;;7.28;4.00;;;;;;;8.65;65.92;95415.72;5062876;28;20078;-77
2023/01/23 04:15:14;;;;;;;6.47;3.75;;;;;;;8.57;66.05;95408.00;5063902;28;20495;-76
2023/01/23 04:17:39;;;;;;;6.03;3.70;;;;;;;8.57;65.95;95414.25;5062301;28;20037;-78
2023/01/23 04:20:05;;;;;;;5.82;3.40;;;;;;;8.57;65.98;95416.22;5064299;28;20100;-77
2023/01/23 04:22:30;;;;;;;5.93;3.65;;;;;;;8.47;66.26;95406.94;5067536;28;20036;-77
2023/01/23 04:24:56;;;;;;;5.60;3.42;;;;;;;8.49;66.12;95421.81;5066617;28;20526;-77
2023/01/23 04:27:21;;;;;;;6.40;3.60;;;;;;;8.47;66.32;95431.63;5067018;28;20021;-76
2023/01/23 04:29:47;;;;;;;6.00;3.50;;;;;;;8.51;65.91;95421.38;5065282;28;20028;-77
2023/01/23 04:32:13;;;;;;;7.90;3.90;;;;;;;8.40;66.19;95426.22;5067222;28;20032;-76
2023/01/23 04:34:38;;;;;;;6.93;3.40;;;;;;;8.40;66.12;95420.75;5059738;28;20036;-78
2023/01/23 04:37:04;;;;;;;6.43;2.97;;;;;;;8.33;66.13;95418.84;5066331;28;20104;-77
2023/01/23 04:39:30;;;;;;;4.20;2.55;;;;;;;8.32;66.00;95424.75;5064212;28;20031;-77
2023/01/23 04:41:56;;;;;;;3.80;2.60;;;;;;;8.28;66.10;95429.47;5065566;28;20094;-76
2023/01/23 04:44:21;;;;;;;4.50;2.72;;;;;;;8.30;66.17;95440.81;5067428;28;20032;-76
2023/01/23 04:46:54;;;;;;;4.63;2.50;;;;;;;8.35;65.96;95459.53;5065013;28;20035;-77
2023/01/23 04:49:23;;;;;;;3.35;2.30;;;;;;;8.29;65.70;95458.44;5066071;28;20556;-77
2023/01/23 04:51:50;;;;;;;6.03;2.45;;;;;;;8.33;65.47;95453.69;5064497;28;20146;-77
2023/01/23 04:54:16;;;;;;;3.45;2.30;;;;;;;8.24;65.66;95451.44;5066707;28;20044;-77
2023/01/23 04:56:42;;;;;;;3.95;2.58;;;;;;;8.20;65.79;95456.16;5047000;28;20036;-78
2023/01/23 04:59:08;;;;;;;4.13;2.85;;;;;;;8.21;65.70;95453.03;5066302;28;20048;-75
2023/01/23 05:01:33;;;;;;;6.57;2.85;;;;;;;8.20;66.01;95451.50;5064912;28;20024;-76
2023/01/23 05:03:58;;;;;;;5.00;2.70;;;;;;;8.23;66.12;95463.56;5065392;28;20479;-77
2023/01/23 05:06:24;;;;;;;5.90;2.80;;;;;;;8.10;66.44;95443.38;5065764;28;20032;-77
2023/01/23 05:08:49;;;;;;;4.82;2.60;;;;;;;8.23;66.24;95452.63;5070658;28;20464;-79
2023/01/23 05:11:15;;;;;;;5.47;3.13;;;;;;;8.18;66.69;95456.56;5076155;28;20054;-75
2023/01/23 05:13:40;;;;;;;6.45;3.40;;;;;;;8.18;66.64;95455.81;5063194;28;20115;-76
2023/01/23 05:16:06;;;;;;;6.25;3.20;;;;;;;8.11;66.51;95464.88;5068229;28;20417;-76
2023/01/23 05:18:31;;;;;;;6.70;2.92;;;;;;;8.18;66.54;95455.81;5064792;28;20129;-77
2023/01/23 05:20:57;;;;;;;5.22;3.42;;;;;;;8.25;66.12;95467.44;5065916;28;20020;-77
2023/01/23 05:23:22;;;;;;;5.90;3.20;;;;;;;8.27;66.31;95477.25;5048830;28;20051;-77
2023/01/23 05:25:47;;;;;;;6.10;3.17;;;;;;;8.23;66.42;95480.78;5065787;28;20479;-76
2023/01/23 05:28:13;;;;;;;4.88;3.28;;;;;;;8.29;66.12;95489.34;5071159;28;20483;-77
2023/01/23 05:30:38;;;;;;;6.07;3.10;;;;;;;8.30;66.13;95499.09;5064356;28;20044;-76
2023/01/23 05:33:04;;;;;;;5.40;3.17;;;;;;;8.39;65.84;95504.91;5066748;28;20044;-76
2023/01/23 05:35:29;;;;;;;5.18;3.03;;;;;;;8.33;65.88;95517.47;5071094;28;20050;-76
2023/01/23 05:37:55;;;;;;;5.18;3.28;;;;;;;8.32;66.05;95501.44;5065289;28;20033;-76
2023/01/23 05:40:20;;;;;;;6.20;2.72;;;;;;;8.39;65.53;95502.16;5051245;28;20471;-76
2023/01/23 05:42:46;;;;;;;5.05;2.65;;;;;;;8.39;65.55;95509.63;5063742;28;20029;-76
2023/01/23 05:45:12;;;;;;;5.60;2.35;;;;;;;8.42;65.31;95504.06;5063779;28;20028;-77
2023/01/23 05:47:38;;;;;;;5.13;2.47;;;;;;;8.41;65.32;95504.50;5044685;28;20032;-77
2023/01/23 05:50:04;;;;;;;5.50;2.63;;;;;;;8.46;65.42;95496.59;5066244;28;20048;-75
2023/01/23 05:52:30;;;;;;;7.47;2.75;;;;;;;8.52;65.07;95499.66;5063759;28;20029;-76
2023/01/23 05:54:55;;;;;;;4.97;2.50;;;;;;;8.58;64.71;95497.25;5066299;28;20021;-76
2023/01/23 05:57:22;;;;;;;4.70;2.65;;;;;;;8.50;64.96;95496.56;5063476;28;20420;-77
2023/01/23 05:59:48;;;;;;;5.53;2.60;;;;;;;8.64;64.52;95496.38;5066723;28;20025;-77
2023/01/23 06:02:13;;;;;;;3.88;2.42;;;;;;;8.67;64.30;95492.84;5064808;28;20024;-76
2023/01/23 06:04:39;;;;;;;4.50;2.22;;;;;;;8.66;64.18;95506.94;5067815;28;20020;-77
2023/01/23 06:07:04;;;;;;;4.90;2.90;;;;;;;8.60;64.45;95501.16;5069416;28;20024;-76
2023/01/23 06:09:29;;;;;;;4.47;2.65;;;;;;;8.60;64.57;95505.81;5061277;28;20213;-76
2023/01/23 06:11:55;;;;;;;5.80;2.95;;;;;;;8.51;64.50;95503.59;5066883;28;20032;-77
2023/01/23 06:14:20;;;;;;;10.95;3.15;;;;;;;8.47;64.71;95513.81;5064216;28;20025;-75
2023/01/23 06:16:46;;;;;;;4.97;2.60;;;;;;;8.24;65.03;95501.50;5064551;28;20055;-75
2023/01/23 06:19:11;;;;;;;4.47;2.50;;;;;;;8.33;64.98;95500.25;5063681;28;20043;-76
2023/01/23 06:21:37;;;;;;;6.32;3.08;;;;;;;8.22;65.23;95506.63;5082129;28;20023;-78
2023/01/23 06:24:02;;;;;;;5.47;2.92;;;;;;;8.12;65.61;95515.72;5067478;28;20074;-76
2023/01/23 06:26:28;;;;;;;4.93;2.50;;;;;;;8.06;65.54;95514.63;5063572;28;20028;-77
2023/01/23 06:28:53;;;;;;;5.65;2.72;;;;;;;8.06;65.75;95520.09;5064314;28;20036;-78
2023/01/23 06:31:19;;;;;;;6.97;3.28;;;;;;;8.10;65.89;95526.31;5060827;28;20024;-76
2023/01/23 06:33:49;;;;;;;6.22;3.00;;;;;;;8.10;65.90;95523.56;5065264;28;20415;-77
2023/01/23 06:36:15;;;;;;;4.45;2.88;;;;;;;8.16;65.75;95527.44;5063064;28;20048;-77
2023/01/23 06:38:40;;;;;;;5.95;3.08;;;;;;;8.21;65.41;95529.72;5056946;28;20546;-77
2023/01/23 06:41:07;;;;;;;5.72;3.15;;;;;;;8.28;65.67;95522.63;5064386;28;20020;-77
2023/01/23 06:43:33;;;;;;;5.93;3.20;;;;;;;8.25;65.58;95508.53;5060723;28;20032;-76
2023/01/23 06:45:58;;;;;;;7.30;3.33;;;;;;;8.14;66.17;95510.63;5064981;28;20579;-77
2023/01/23 06:48:23;;;;;;;6.90;3.55;;;;;;;8.09;65.99;95527.50;5063754;28;20063;-78
2023/01/23 06:50:49;;;;;;;5.95;3.35;;;;;;;7.99;66.46;95539.31;5066391;28;20144;-77
2023/01/23 06:53:15;;;;;;;8.73;4.35;;;;;;;7.91;67.00;95527.69;5063918;28;20056;-75
2023/01/23 06:55:41;;;;;;;8.75;4.85;;;;;;;7.95;67.31;95538.56;5064138;28;20055;-76
2023/01/23 06:58:07;;;;;;;11.48;4.97;;;;;;;7.91;67.46;95540.56;5063703;28;20082;-75
2023/01/23 07:00:35;;;;;;;9.70;5.07;;;;;;;7.93;67.45;95547.19;5065111;28;20395;-77
2023/01/23 07:03:02;;;;;;;10.13;6.28;;;;;;;7.96;67.66;95559.28;5058470;28;20025;-77
2023/01/23 07:05:31;;;;;;;10.48;5.95;;;;;;;7.93;68.05;95565.59;5057495;28;20090;-76
2023/01/23 07:07:57;;;;;;;8.50;5.30;;;;;;;7.97;67.93;95574.53;5047274;28;20028;-75
2023/01/23 07:10:23;;;;;;;9.75;5.20;;;;;;;7.88;68.13;95569.53;5063948;28;20102;-76
2023/01/23 07:12:50;;;;;;;11.25;5.75;;;;;;;7.78;68.56;95581.34;5066043;28;20017;-77
2023/01/23 07:15:16;;;;;;;10.15;5.65;;;;;;;7.88;68.41;95574.22;5063086;28;20050;-75
2023/01/23 07:17:41;;;;;;;9.15;5.20;;;;;;;7.82;68.31;95581.31;5067236;28;20356;-76
2023/01/23 07:20:07;;;;;;;10.35;5.38;;;;;;;7.73;67.97;95557.91;5068246;28;20029;-77
2023/01/23 07:22:32;;;;;;;10.00;5.75;;;;;;;7.71;68.28;95571.22;5060912;28;20032;-76
2023/01/23 07:24:58;;;;;;;12.23;6.47;;;;;;;7.65;68.08;95572.06;5066550;28;20053;-76
2023/01/23 07:27:23;;;;;;;10.18;6.05;;;;;;;7.52;68.48;95590.91;5062456;28;20066;-77
2023/01/23 07:29:49;;;;;;;11.90;5.78;;;;;;;7.54;68.65;95582.31;5064864;28;20032;-76
2023/01/23 07:32:14;;;;;;;10.10;5.93;;;;;;;7.46;69.20;95589.78;5062554;28;20507;-77
2023/01/23 07:34:39;;;;;;;13.70;6.57;;;;;;;7.36;69.64;95596.09;5065556;28;20120;-77
2023/01/23 07:37:05;;;;;;;14.90;6.90;;;;;;;7.29;69.87;95599.66;5065130;28;20036;-77
2023/01/23 07:39:30;;;;;;;12.63;6.57;;;;;;;7.34;69.75;95595.69;5064001;28;20407;-76
2023/01/23 07:41:55;;;;;;;11.45;6.65;;;;;;;7.43;69.84;95607.78;5065669;28;20056;-76
2023/01/23 07:44:21;;;;;;;9.95;6.10;;;;;;;7.37;70.14;95609.38;5063504;28;20021;-76
2023/01/23 07:46:47;;;;;;;12.02;6.68;;;;;;;7.34;70.66;95603.91;5064584;28;20490;-76
2023/01/23 07:49:13;;;;;;;9.27;6.47;;;;;;;7.29;71.02;95599.66;5062033;28;20198;-76
2023/01/23 07:51:39;;;;;;;10.95;6.82;;;;;;;7.24;71.00;95618.44;5064378;28;20028;-75
2023/01/23 07:54:06;;;;;;;12.60;7.25;;;;;;;7.17;71.22;95589.19;5062930;28;20040;-77
2023/01/23 07:56:34;;;;;;;10.55;6.65;;;;;;;7.18;71.64;95605.19;5063990;28;20125;-77
2023/01/23 07:58:59;;;;;;;11.38;7.68;;;;;;;7.25;71.64;95606.31;5064335;28;20028;-77
2023/01/23 08:01:25;;;;;;;11.38;7.32;;;;;;;7.36;71.37;95610.56;5063763;28;20039;-76
2023/01/23 08:03:51;;;;;;;13.65;7.15;;;;;;;7.39;70.54;95612.47;5064477;28;20028;-78
2023/01/23 08:06:18;;;;;;;11.00;7.15;;;;;;;7.38;70.54;95604.69;5061984;28;20403;-79
2023/01/23 08:08:46;;;;;;;10.93;7.10;;;;;;;7.28;71.05;95617.22;5065997;28;20020;-76
2023/01/23 08:11:12;;;;;;;9.00;6.07;;;;;;;7.26;70.93;95627.00;5062517;28;20085;-77
2023/01/23 08:13:37;;;;;;;10.43;6.30;;;;;;;7.35;70.36;95632.84;5068779;28;20029;-77
2023/01/23 08:16:03;;;;;;;10.48;6.35;;;;;;;7.34;70.30;95621.13;5065760;28;20090;-77
2023/01/23 08:18:29;;;;;;;9.88;6.70;;;;;;;7.41;70.18;95621.06;5063738;28;20072;-77
2023/01/23 08:20:56;;;;;;;14.40;5.70;;;;;;;7.44;69.89;95619.50;5066851;28;20106;-78
2023/01/23 08:23:26;;;;;;;9.82;5.95;;;;;;;7.42;70.04;95630.06;5061653;28;20493;-76
2023/01/23 08:25:53;;;;;;;11.60;6.68;;;;;;;7.47;68.85;95657.00;5065980;28;20029;-76
2023/01/23 08:28:18;;;;;;;10.43;5.75;;;;;;;7.55;68.48;95657.72;5062226;28;20025;-77
2023/01/23 08:30:44;;;;;;;7.03;4.75;;;;;;;7.48;68.63;95661.28;5068077;28;20032;-78
2023/01/23 08:33:09;;;;;;;8.13;4.97;;;;;;;7.45;68.14;95651.94;5070243;28;20032;-78
2023/01/23 08:35:36;;;;;;;9.80;5.15;;;;;;;7.51;68.00;95651.50;5064720;28;20036;-75
2023/01/23 08:38:02;;;;;;;9.48;6.03;;;;;;;7.52;67.87;95662.06;5065827;28;20055;-76
2023/01/23 08:40:28;;;;;;;10.43;5.05;;;;;;;7.48;67.05;95655.03;5063486;28;20025;-77
2023/01/23 08:42:53;;;;;;;9.63;5.55;;;;;;;7.52;66.83;95640.16;5065664;28;20029;-77
2023/01/23 08:45:19;;;;;;;8.73;4.85;;;;;;;7.41;66.16;95647.66;5062914;28;20454;-76
2023/01/23 08:47:45;;;;;;;9.25;4.78;;;;;;;7.44;66.07;95630.44;5065582;28;20051;-75
2023/01/23 08:50:10;;;;;;;7.35;4.47;;;;;;;7.45;65.72;95643.72;5063879;28;20032;-76
2023/01/23 08:52:36;;;;;;;8.02;4.50;;;;;;;7.51;65.24;95641.31;5064305;28;20036;-76
2023/01/23 08:55:02;;;;;;;7.03;4.03;;;;;;;7.39;65.40;95653.50;5063913;28;20031;-75
2023/01/23 08:57:27;;;;;;;6.68;4.13;;;;;;;7.37;65.30;95639.47;5061594;28;20028;-75
2023/01/23 08:59:53;;;;;;;7.88;4.35;;;;;;;7.30;65.24;95639.50;5065738;28;20481;-76
2023/01/23 09:02:18;;;;;;;7.82;4.22;;;;;;;7.34;65.34;95642.19;5061349;28;20025;-76
2023/01/23 09:04:43;;;;;;;8.38;3.92;;;;;;;7.39;64.91;95658.97;5065197;28;20447;-75
2023/01/23 09:07:09;;;;;;;6.63;3.83;;;;;;;7.35;64.82;95663.69;5064441;28;20139;-78
2023/01/23 09:09:34;;;;;;;7.13;3.88;;;;;;;7.31;65.31;95643.78;5071967;28;20077;-76
2023/01/23 09:12:00;;;;;;;9.82;4.18;;;;;;;7.23;65.49;95655.19;5070083;28;20266;-77
2023/01/23 09:14:25;;;;;;;6.93;3.88;;;;;;;7.28;64.94;95657.47;5049622;28;20408;-78
2023/01/23 09:16:51;;;;;;;6.82;3.97;;;;;;;7.36;64.89;95642.59;5068855;28;20040;-76
2023/01/23 09:19:16;;;;;;;6.28;3.97;;;;;;;7.32;64.90;95645.34;5066542;28;20482;-77
2023/01/23 09:21:41;;;;;;;5.78;3.28;;;;;;;7.46;64.57;95633.56;5068499;28;20331;-77
2023/01/23 09:24:07;;;;;;;6.85;3.65;;;;;;;7.51;64.45;95652.28;5066143;28;20142;-77
2023/01/23 09:26:33;;;;;;;5.78;3.22;;;;;;;7.31;64.58;95653.94;5067169;28;20021;-78
2023/01/23 09:28:58;;;;;;;6.97;3.17;;;;;;;7.33;64.58;95681.69;5065657;28;20029;-79
2023/01/23 09:31:23;;;;;;;5.53;3.05;;;;;;;7.24;64.86;95648.53;5070515;28;20029;-77
2023/01/23 09:33:49;;;;;;;6.32;3.55;;;;;;;7.29;64.44;95640.69;5069569;28;20036;-78
2023/01/23 09:36:14;;;;;;;6.68;3.60;;;;;;;7.36;63.99;95639.88;5066713;28;20060;-79
2023/01/23 09:38:40;;;;;;;6.45;3.40;;;;;;;7.30;64.11;95633.25;5068649;28;20067;-77
2023/01/23 09:41:22;;;;;;;5.05;3.53;;;;;;;7.33;64.24;95635.94;5067851;28;20032;-85
2023/01/23 09:44:11;;;;;;;5.88;3.00;;;;;;;7.43;64.27;95639.81;5068085;28;20036;-85
2023/01/23 09:46:37;;;;;;;5.15;3.08;;;;;;;7.47;63.80;95640.59;5067190;28;20097;-84
2023/01/23 09:49:11;;;;;;;8.60;4.00;;;;;;;7.51;63.99;95643.28;5066922;28;20107;-84
2023/01/23 09:51:36;;;;;;;6.30;3.75;;;;;;;7.51;63.81;95646.03;5067622;28;20078;-87
2023/01/23 09:54:47;;;;;;;6.28;2.97;;;;;;;7.65;63.67;95644.00;5067563;28;20021;-86
2023/01/23 09:57:17;;;;;;;5.13;3.05;;;;;;;7.65;63.48;95640.47;5066278;28;20120;-85
2023/01/23 09:59:49;;;;;;;7.03;3.70;;;;;;;7.61;63.49;95656.13;5049746;28;20029;-87
2023/01/23 10:02:22;;;;;;;7.00;3.55;;;;;;;7.71;63.60;95668.97;5057938;28;20055;-86
2023/01/23 10:04:49;;;;;;;6.10;3.53;;;;;;;7.81;63.52;95659.16;5070049;28;20062;-88
2023/01/23 10:07:33;;;;;;;8.15;4.07;;;;;;;7.86;63.33;95645.03;5067043;28;20275;-85
2023/01/23 10:10:17;;;;;;;8.05;3.90;;;;;;;7.85;63.40;95651.66;5069298;28;20061;-86
2023/01/23 10:13:02;;;;;;;6.70;3.78;;;;;;;7.78;63.57;95652.50;5068959;28;20445;-86
2023/01/23 10:15:52;;;;;;;6.00;3.70;;;;;;;7.72;63.91;95656.84;5067364;28;20132;-86
2023/01/23 10:18:43;;;;;;;6.38;4.20;;;;;;;7.49;65.10;95670.28;5068635;28;20117;-86
2023/01/23 10:21:38;;;;;;;6.30;4.05;;;;;;;7.54;64.92;95662.44;5066991;28;20120;-87
2023/01/23 10:24:56;;;;;;;7.65;4.43;;;;;;;7.59;64.99;95650.28;5066759;28;20037;-84
2023/01/23 10:27:30;;;;;;;6.78;4.40;;;;;;;7.53;65.27;95654.63;5066444;28;20032;-85
2023/01/23 10:29:56;;;;;;;8.27;4.38;;;;;;;7.44;65.59;95649.56;5066139;28;20044;-85
2023/01/23 10:32:27;;;;;;;6.05;4.40;;;;;;;7.54;65.73;95658.91;5064323;28;20129;-83
2023/01/23 10:35:01;;;;;;;8.00;4.20;;;;;;;7.39;65.93;95669.91;5070740;28;20036;-84
2023/01/23 10:38:00;;;;;;;7.28;4.43;;;;;;;7.43;66.14;95665.22;5077408;28;20036;-84
2023/01/23 10:43:15;;;;;;;8.57;4.70;;;;;;;7.45;66.42;95665.63;5065387;28;20517;-85
2023/01/23 10:45:42;;;;;;;8.80;4.82;;;;;;;7.45;66.53;95648.41;5046929;28;20495;-85
2023/01/23 10:48:29;;;;;;;7.55;5.25;;;;;;;7.43;66.50;95656.22;5066540;28;20028;-84
2023/01/23 10:50:54;;;;;;;7.93;4.18;;;;;;;7.40;66.35;95652.34;5064615;28;20028;-84
2023/01/23 10:53:20;;;;;;;6.95;4.75;;;;;;;7.38;66.47;95657.41;5073246;28;20538;-86
2023/01/23 10:55:46;;;;;;;7.57;4.50;;;;;;;7.35;66.53;95655.50;5085618;28;20055;-84
2023/01/23 10:58:28;;;;;;;6.38;4.32;;;;;;;7.40;66.50;95651.56;5086388;28;20024;-83
2023/01/23 11:00:54;;;;;;;8.77;5.28;;;;;;;7.43;66.99;95656.22;5071370;28;20033;-84
2023/01/23 11:03:19;;;;;;;10.63;5.85;;;;;;;7.48;66.80;95655.81;5064244;28;20050;-84
2023/01/23 11:05:52;;;;;;;8.63;4.97;;;;;;;7.45;66.31;95637.44;5067282;28;20036;-85
2023/01/23 11:08:22;;;;;;;10.90;5.88;;;;;;;7.56;66.34;95648.34;5064453;28;20048;-83
2023/01/23 11:10:47;;;;;;;8.07;5.45;;;;;;;7.51;66.77;95646.03;5066016;28;20089;-82
2023/01/23 11:13:28;;;;;;;9.60;6.15;;;;;;;7.49;66.84;95653.84;5067205;28;20016;-86
2023/01/23 11:15:53;;;;;;;10.07;6.10;;;;;;;7.51;66.51;95643.28;5065067;28;20028;-83
2023/01/23 11:18:32;;;;;;;10.15;6.25;;;;;;;7.56;66.25;95651.84;5067225;28;20063;-82
2023/01/23 11:20:59;;;;;;;9.07;5.90;;;;;;;7.44;66.19;95633.16;5065265;28;20413;-85
2023/01/23 11:23:24;;;;;;;12.73;6.35;;;;;;;7.37;66.77;95644.94;5067217;28;20459;-84
2023/01/23 11:25:52;;;;;;;7.93;5.65;;;;;;;7.30;67.68;95653.19;5064463;28;20052;-84
2023/01/23 11:28:23;;;;;;;9.68;6.15;;;;;;;7.35;67.30;95647.28;5064242;28;20016;-81
2023/01/23 11:30:51;;;;;;;9.20;5.88;;;;;;;7.33;67.56;95643.38;5066630;28;20035;-82
2023/01/23 11:33:46;;;;;;;8.45;5.72;;;;;;;7.35;67.53;95644.56;5064566;28;20043;-80
2023/01/23 11:36:17;;;;;;;6.78;5.28;;;;;;;7.41;67.40;95640.22;5065673;28;20040;-83
2023/01/23 11:39:31;;;;;;;10.20;5.28;;;;;;;7.42;67.32;95647.25;5066405;28;20020;-86
2023/01/23 11:41:56;;;;;;;7.25;5.43;;;;;;;7.41;67.38;95640.22;5077159;28;20048;-81
2023/01/23 11:44:22;;;;;;;6.03;4.50;;;;;;;7.37;67.50;95635.94;5067736;28;20094;-81
2023/01/23 11:46:53;;;;;;;7.75;5.60;;;;;;;7.31;67.67;95629.34;5066204;28;20116;-84
2023/01/23 11:49:21;;;;;;;6.55;5.10;;;;;;;7.33;67.77;95638.69;5067006;28;20041;-81
2023/01/23 11:51:53;;;;;;;6.35;4.18;;;;;;;7.28;68.03;95641.06;5066478;28;20117;-84
2023/01/23 11:54:40;;;;;;;8.13;4.45;;;;;;;7.14;68.37;95631.75;5079796;28;20025;-82
2023/01/23 11:57:24;;;;;;;7.43;5.00;;;;;;;6.98;68.81;95619.72;5067530;28;20028;-84